Tooele Army Depot, Utah
Current Conditions -  °F | °C
As of 8:53 AM on Sunday 25 Jan 2015 (Local Time) from KSLC Reporting Station
Haze Haze  
Wind Chill: 35°   Ceiling: 20000
Heat Index: 35°   Visibility: 6mi
Dew Point: 29°   Wind: 0mph
Humidity: 78%   Direction: NA
Pressure: 30.47"   Gusts: NA
Location:  40.5393°N, 112.353°W
Report Text: KSLC 251553Z 00000KT 6SM HZ FEW040 BKN200 02/M02 A3047 RMK AO2 SLP327 T00171017
Loading
Personal Weather Stations






























Interactive Weather Map New forecast layout! Learn more

10-Day Weather Forecast

Advertisements
Track Severe Weather on mobile